createdAt,value
2022-07-29T00:00:58.927Z,99720.94
2022-07-29T00:03:25.693Z,99722.22
2022-07-29T00:05:54.024Z,99725.00
2022-07-29T00:08:21.020Z,99728.16
2022-07-29T00:10:52.708Z,99721.34
2022-07-29T00:13:32.144Z,99715.28
2022-07-29T00:16:04.410Z,99721.97
2022-07-29T00:18:31.884Z,99713.19
2022-07-29T00:20:58.528Z,99712.38
2022-07-29T00:23:25.234Z,99712.84
2022-07-29T00:25:51.874Z,99712.88
2022-07-29T00:28:18.565Z,99698.06
2022-07-29T00:30:45.284Z,99703.56
2022-07-29T00:33:13.043Z,99693.00
2022-07-29T00:35:45.847Z,99696.81
2022-07-29T00:38:14.334Z,99685.16
2022-07-29T00:40:43.945Z,99686.59
2022-07-29T00:43:12.513Z,99684.69
2022-07-29T00:45:39.379Z,99687.25
2022-07-29T00:48:06.581Z,99681.25
2022-07-29T00:50:33.869Z,99670.09
2022-07-29T00:53:00.988Z,99672.56
2022-07-29T00:55:27.702Z,99668.59
2022-07-29T00:57:54.721Z,99665.22
2022-07-29T01:00:23.730Z,99662.78
2022-07-29T01:02:50.452Z,99658.84
2022-07-29T01:05:22.729Z,99655.38
2022-07-29T01:07:51.507Z,99656.97
2022-07-29T01:10:19.448Z,99662.19
2022-07-29T01:12:47.774Z,99653.59
2022-07-29T01:15:14.439Z,99659.84
2022-07-29T01:17:53.440Z,99662.91
2022-07-29T01:20:46.329Z,99666.50
2022-07-29T01:23:31.359Z,99658.31
2022-07-29T01:26:20.385Z,99650.53
2022-07-29T01:29:25.207Z,99659.06
2022-07-29T01:32:22.558Z,99652.44
2022-07-29T01:35:14.659Z,99655.88
2022-07-29T01:37:48.196Z,99656.56
2022-07-29T01:40:28.558Z,99655.13
2022-07-29T01:42:57.729Z,99661.75
2022-07-29T01:45:30.136Z,99659.47
2022-07-29T01:48:19.416Z,99649.22
2022-07-29T01:50:57.087Z,99652.16
2022-07-29T01:53:36.417Z,99647.34
2022-07-29T01:56:05.931Z,99656.03
2022-07-29T01:58:33.155Z,99647.50
2022-07-29T02:01:00.769Z,99656.31
2022-07-29T02:03:28.669Z,99654.44
2022-07-29T02:05:57.776Z,99658.16
2022-07-29T02:08:25.159Z,99654.34
2022-07-29T02:10:52.816Z,99655.28
2022-07-29T02:13:21.610Z,99656.97
2022-07-29T02:15:48.868Z,99651.75
2022-07-29T02:18:18.116Z,99656.22
2022-07-29T02:20:50.547Z,99655.38
2022-07-29T02:23:20.695Z,99654.31
2022-07-29T02:25:50.410Z,99652.47
2022-07-29T02:28:18.277Z,99652.66
2022-07-29T02:30:46.277Z,99653.75
2022-07-29T02:33:14.535Z,99647.06
2022-07-29T02:35:42.324Z,99655.41
2022-07-29T02:38:29.127Z,99653.31
2022-07-29T02:40:56.302Z,99652.94
2022-07-29T02:43:23.714Z,99648.22
2022-07-29T02:45:53.085Z,99648.00
2022-07-29T02:48:21.321Z,99651.78
2022-07-29T02:50:51.482Z,99653.88
2022-07-29T02:53:20.078Z,99661.34
2022-07-29T02:55:52.633Z,99654.13
2022-07-29T02:58:23.814Z,99652.25
2022-07-29T03:00:52.483Z,99650.34
2022-07-29T03:03:22.266Z,99645.41
2022-07-29T03:05:49.055Z,99645.81
2022-07-29T03:08:18.079Z,99646.63
2022-07-29T03:10:46.468Z,99655.38
2022-07-29T03:13:14.008Z,99654.31
2022-07-29T03:15:40.932Z,99652.88
2022-07-29T03:18:07.862Z,99653.94
2022-07-29T03:20:34.679Z,99648.94
2022-07-29T03:23:01.515Z,99652.03
2022-07-29T03:25:28.358Z,99655.63
2022-07-29T03:27:55.019Z,99651.88
2022-07-29T03:30:22.537Z,99657.91
2022-07-29T03:32:51.861Z,99656.88
2022-07-29T03:35:22.073Z,99655.03
2022-07-29T03:37:49.337Z,99652.56
2022-07-29T03:40:20.972Z,99653.00
2022-07-29T03:42:47.876Z,99653.00
2022-07-29T03:45:16.939Z,99646.34
2022-07-29T03:47:50.381Z,99643.44
2022-07-29T03:50:20.398Z,99650.50
2022-07-29T03:52:47.888Z,99653.81
2022-07-29T03:56:32.306Z,99649.13
2022-07-29T03:58:59.732Z,99651.13
2022-07-29T04:01:27.220Z,99652.19
2022-07-29T04:03:54.415Z,99654.66
2022-07-29T04:11:10.495Z,99654.06
2022-07-29T04:13:37.618Z,99651.56
2022-07-29T04:16:04.533Z,99649.06
2022-07-29T04:18:31.419Z,99645.16
2022-07-29T04:21:01.601Z,99653.06
2022-07-29T04:28:01.578Z,99650.03
2022-07-29T04:30:29.086Z,99652.72
2022-07-29T04:32:55.862Z,99652.22
2022-07-29T04:39:58.695Z,99654.66
2022-07-29T04:42:27.844Z,99659.19
2022-07-29T04:44:56.293Z,99656.59
2022-07-29T04:51:56.370Z,99653.53
2022-07-29T04:54:23.029Z,99660.78
2022-07-29T04:56:49.712Z,99663.56
2022-07-29T05:03:48.660Z,99653.28
2022-07-29T05:06:15.314Z,99657.28
2022-07-29T05:08:42.189Z,99662.84
2022-07-29T05:11:12.213Z,99659.97
2022-07-29T05:13:45.040Z,99663.50
2022-07-29T05:16:12.417Z,99653.94
2022-07-29T05:18:39.278Z,99652.69
2022-07-29T05:21:05.934Z,99667.03
2022-07-29T05:23:32.691Z,99663.28
2022-07-29T05:25:59.375Z,99669.47
2022-07-29T05:28:27.060Z,99670.69
2022-07-29T05:30:53.809Z,99666.69
2022-07-29T05:33:34.902Z,99668.78
2022-07-29T05:36:06.322Z,99674.31
2022-07-29T05:38:33.050Z,99668.22
2022-07-29T05:41:02.688Z,99675.53
2022-07-29T05:43:29.500Z,99672.81
2022-07-29T05:45:56.520Z,99676.34
2022-07-29T05:48:23.287Z,99673.44
2022-07-29T05:50:49.978Z,99675.16
2022-07-29T05:53:18.989Z,99679.94
2022-07-29T05:55:48.506Z,99680.13
2022-07-29T05:58:15.323Z,99679.66
2022-07-29T06:00:42.102Z,99683.41
2022-07-29T06:03:08.808Z,99679.38
2022-07-29T06:05:35.528Z,99693.03
2022-07-29T06:08:02.378Z,99684.31
2022-07-29T06:10:29.092Z,99685.28
2022-07-29T06:12:55.778Z,99682.94
2022-07-29T06:15:22.471Z,99680.19
2022-07-29T06:18:00.000Z,99689.38
2022-07-29T06:20:30.972Z,99687.41
2022-07-29T06:22:58.320Z,99687.41
2022-07-29T06:25:25.111Z,99688.84
2022-07-29T06:27:51.946Z,99689.84
2022-07-29T06:30:18.642Z,99684.34
2022-07-29T06:32:45.393Z,99683.69
2022-07-29T06:35:39.214Z,99685.50
2022-07-29T06:37:59.775Z,99685.56
2022-07-29T06:40:45.806Z,99685.56
2022-07-29T06:43:50.152Z,99698.97
2022-07-29T06:50:48.564Z,99697.69
2022-07-29T06:53:15.265Z,99692.63
2022-07-29T06:55:42.076Z,99702.91
2022-07-29T06:58:10.029Z,99702.66
2022-07-29T07:00:36.782Z,99702.66
2022-07-29T07:04:22.395Z,99706.28
2022-07-29T07:06:49.252Z,99713.03
2022-07-29T07:09:15.954Z,99712.00
2022-07-29T07:11:42.635Z,99709.91
2022-07-29T07:14:09.345Z,99699.88
2022-07-29T07:16:37.141Z,99709.47
2022-07-29T07:19:03.871Z,99714.00
2022-07-29T07:21:31.165Z,99713.53
2022-07-29T07:23:58.847Z,99719.50
2022-07-29T07:26:26.012Z,99709.63
2022-07-29T07:30:08.991Z,99713.41
2022-07-29T07:32:36.066Z,99714.75
2022-07-29T07:35:04.177Z,99713.72
2022-07-29T07:37:30.822Z,99704.66
2022-07-29T07:39:57.568Z,99703.84
2022-07-29T07:42:24.563Z,99708.94
2022-07-29T07:45:12.014Z,99696.94
2022-07-29T07:47:38.908Z,99705.59
2022-07-29T07:50:07.611Z,99693.84
2022-07-29T07:52:34.627Z,99703.78
2022-07-29T07:55:01.943Z,99698.75
2022-07-29T07:57:28.604Z,99697.00
2022-07-29T07:59:55.475Z,99695.63
2022-07-29T08:02:22.347Z,99690.66
2022-07-29T08:04:49.048Z,99696.84
2022-07-29T08:07:15.862Z,99690.94
2022-07-29T08:09:42.875Z,99690.72
2022-07-29T08:12:11.482Z,99686.44
2022-07-29T08:14:38.490Z,99686.22
2022-07-29T08:17:05.277Z,99683.03
2022-07-29T08:19:32.014Z,99691.78
2022-07-29T08:21:58.671Z,99686.97
2022-07-29T08:24:43.845Z,99688.59
2022-07-29T08:27:40.620Z,99680.44
2022-07-29T08:30:00.870Z,99685.88
2022-07-29T08:32:52.030Z,99689.19
2022-07-29T08:35:16.013Z,99688.59
2022-07-29T08:37:42.869Z,99676.09
2022-07-29T08:40:09.928Z,99689.19
2022-07-29T08:42:36.734Z,99689.81
2022-07-29T08:45:04.873Z,99690.97
2022-07-29T08:47:31.731Z,99689.66
2022-07-29T08:49:58.452Z,99695.69
2022-07-29T08:52:30.672Z,99690.03
2022-07-29T09:00:07.059Z,99689.94
2022-07-29T09:02:43.118Z,99690.56
2022-07-29T09:05:13.648Z,99690.44
2022-07-29T09:08:31.242Z,99689.25
2022-07-29T09:10:58.652Z,99683.34
2022-07-29T09:13:26.100Z,99685.25
2022-07-29T09:15:53.273Z,99691.28
2022-07-29T09:18:38.860Z,99684.53
2022-07-29T09:21:25.910Z,99687.72
2022-07-29T09:24:04.747Z,99682.75
2022-07-29T09:26:32.525Z,99680.53
2022-07-29T09:29:00.599Z,99685.22
2022-07-29T09:31:37.547Z,99681.44
2022-07-29T09:34:05.244Z,99687.59
2022-07-29T09:36:32.061Z,99674.22
2022-07-29T09:39:00.874Z,99668.47
2022-07-29T09:41:28.317Z,99665.75
2022-07-29T09:43:56.875Z,99666.66
2022-07-29T09:46:24.815Z,99658.84
2022-07-29T09:49:13.944Z,99651.50
2022-07-29T09:51:41.331Z,99654.00
2022-07-29T09:54:24.300Z,99655.41
2022-07-29T09:56:51.454Z,99655.88
2022-07-29T09:59:18.235Z,99663.91
2022-07-29T10:01:44.896Z,99661.41
2022-07-29T10:04:11.782Z,99654.31
2022-07-29T10:07:03.890Z,99656.44
2022-07-29T10:09:31.327Z,99658.47
2022-07-29T10:12:11.903Z,99654.56
2022-07-29T10:14:39.144Z,99661.66
2022-07-29T10:17:06.830Z,99648.88
2022-07-29T10:19:34.194Z,99657.41
2022-07-29T10:22:02.360Z,99648.78
2022-07-29T10:24:30.398Z,99651.84
2022-07-29T10:26:58.502Z,99652.44
2022-07-29T10:29:29.778Z,99652.53
2022-07-29T10:32:05.582Z,99655.59
2022-07-29T10:34:50.931Z,99656.53
2022-07-29T10:38:38.556Z,99650.41
2022-07-29T10:41:43.735Z,99651.47
2022-07-29T10:44:19.398Z,99648.25
2022-07-29T10:46:50.262Z,99647.03
2022-07-29T10:49:25.215Z,99648.00
2022-07-29T10:52:02.443Z,99643.38
2022-07-29T10:54:35.698Z,99647.50
2022-07-29T10:57:54.210Z,99641.69
2022-07-29T11:00:19.519Z,99641.94
2022-07-29T11:02:49.485Z,99644.38
2022-07-29T11:05:20.603Z,99642.47
2022-07-29T11:08:20.409Z,99646.50
2022-07-29T11:11:37.650Z,99646.88
2022-07-29T11:14:04.362Z,99648.47
2022-07-29T11:17:03.006Z,99645.38
2022-07-29T11:19:33.168Z,99645.84
2022-07-29T11:22:00.002Z,99647.97
2022-07-29T11:24:31.842Z,99641.13
2022-07-29T11:27:19.469Z,99632.78
2022-07-29T11:29:56.501Z,99630.28
2022-07-29T11:32:40.614Z,99629.47
2022-07-29T11:35:38.260Z,99627.91
2022-07-29T11:38:21.859Z,99620.34
2022-07-29T11:41:20.855Z,99622.78
2022-07-29T11:44:00.666Z,99610.34
2022-07-29T11:46:47.953Z,99612.59
2022-07-29T11:49:20.442Z,99610.78
2022-07-29T11:51:56.302Z,99610.31
2022-07-29T11:54:31.047Z,99609.56
2022-07-29T11:57:01.444Z,99600.91
2022-07-29T12:00:19.973Z,99603.53
2022-07-29T12:02:51.548Z,99608.75
2022-07-29T12:05:36.039Z,99606.84
2022-07-29T12:08:20.082Z,99603.88
2022-07-29T12:10:48.200Z,99594.72
2022-07-29T12:13:17.646Z,99585.81
2022-07-29T12:15:53.284Z,99587.22
2022-07-29T12:18:24.295Z,99597.69
2022-07-29T12:21:04.919Z,99598.19
2022-07-29T12:23:34.469Z,99596.38
2022-07-29T12:26:07.300Z,99592.31
2022-07-29T12:28:40.204Z,99591.50
2022-07-29T12:31:10.014Z,99588.53
2022-07-29T12:33:36.759Z,99589.84
2022-07-29T12:36:10.445Z,99581.91
2022-07-29T12:38:41.334Z,99573.00
2022-07-29T12:41:08.074Z,99579.34
2022-07-29T12:43:34.974Z,99573.97
2022-07-29T12:46:15.526Z,99587.38
2022-07-29T12:48:43.707Z,99577.94
2022-07-29T12:51:12.479Z,99580.75
2022-07-29T12:53:39.646Z,99569.03
2022-07-29T12:56:20.697Z,99573.97
2022-07-29T12:58:53.595Z,99563.06
2022-07-29T13:01:20.977Z,99568.50
2022-07-29T13:03:58.054Z,99572.81
2022-07-29T13:06:46.055Z,99571.75
2022-07-29T13:09:18.297Z,99570.66
2022-07-29T13:11:50.361Z,99564.13
2022-07-29T13:14:35.148Z,99568.50
2022-07-29T13:17:10.077Z,99573.56
2022-07-29T13:19:43.580Z,99574.94
2022-07-29T13:22:12.766Z,99576.34
2022-07-29T13:24:55.539Z,99577.44
2022-07-29T13:27:30.338Z,99575.84
2022-07-29T13:29:58.617Z,99573.75
2022-07-29T13:32:27.728Z,99569.94
2022-07-29T13:34:55.814Z,99571.91
2022-07-29T13:37:22.506Z,99585.31
2022-07-29T13:39:51.571Z,99584.22
2022-07-29T13:42:20.486Z,99587.53
2022-07-29T13:44:47.212Z,99575.53
2022-07-29T13:47:13.845Z,99576.38
2022-07-29T13:49:40.502Z,99581.56
2022-07-29T13:52:08.196Z,99579.41
2022-07-29T13:54:41.973Z,99585.94
2022-07-29T13:57:15.389Z,99582.66
2022-07-29T13:59:42.968Z,99582.13
2022-07-29T14:02:11.031Z,99578.31
2022-07-29T14:04:39.492Z,99578.91
2022-07-29T14:07:06.864Z,99574.84
2022-07-29T14:09:41.663Z,99577.00
2022-07-29T14:12:09.240Z,99571.88
2022-07-29T14:14:37.559Z,99565.31
2022-07-29T14:17:07.174Z,99569.44
2022-07-29T14:19:36.534Z,99555.56
2022-07-29T14:22:05.426Z,99568.38
2022-07-29T14:24:36.993Z,99575.47
2022-07-29T14:27:05.247Z,99572.16
2022-07-29T14:29:37.560Z,99576.56
2022-07-29T14:32:07.482Z,99570.00
2022-07-29T14:34:34.986Z,99566.19
2022-07-29T14:37:01.726Z,99573.84
2022-07-29T14:39:31.767Z,99576.28
2022-07-29T14:41:59.170Z,99577.63
2022-07-29T14:44:31.910Z,99577.63
2022-07-29T14:47:00.535Z,99582.50
2022-07-29T14:49:27.889Z,99583.59
2022-07-29T14:51:54.733Z,99596.72
2022-07-29T14:59:00.376Z,99592.66
2022-07-29T15:01:27.167Z,99596.78
2022-07-29T15:03:57.996Z,99599.78
2022-07-29T15:06:26.949Z,99600.84
2022-07-29T15:08:53.623Z,99603.91
2022-07-29T15:11:20.290Z,99611.25
2022-07-29T15:13:46.971Z,99602.81
2022-07-29T15:16:17.724Z,99612.09
2022-07-29T15:18:44.509Z,99612.63
2022-07-29T15:21:11.216Z,99605.03
2022-07-29T15:23:38.032Z,99600.97
2022-07-29T15:26:04.718Z,99612.69
2022-07-29T15:28:31.405Z,99611.88
2022-07-29T15:30:58.068Z,99617.34
2022-07-29T15:34:17.050Z,99612.03
2022-07-29T15:36:53.750Z,99610.69
2022-07-29T15:39:21.684Z,99609.38
2022-07-29T15:41:48.471Z,99618.03
2022-07-29T15:44:15.142Z,99620.44
2022-07-29T15:47:00.716Z,99621.78
2022-07-29T15:49:48.594Z,99624.22
2022-07-29T15:52:18.951Z,99619.00
2022-07-29T15:54:47.144Z,99620.91
2022-07-29T15:57:14.062Z,99621.41
2022-07-29T15:59:44.563Z,99620.84
2022-07-29T16:02:11.363Z,99630.41
2022-07-29T16:04:38.264Z,99643.72
2022-07-29T16:07:04.957Z,99646.63
2022-07-29T16:09:31.604Z,99639.53
2022-07-29T16:11:58.242Z,99637.31
2022-07-29T16:14:28.261Z,99642.94
2022-07-29T16:16:55.693Z,99634.75
2022-07-29T16:19:22.891Z,99632.84
2022-07-29T16:21:49.786Z,99626.00
2022-07-29T16:24:18.131Z,99622.53
2022-07-29T16:26:44.809Z,99621.94
2022-07-29T16:29:11.476Z,99631.53
2022-07-29T16:31:38.403Z,99633.78
2022-07-29T16:34:06.130Z,99625.59
2022-07-29T16:36:32.782Z,99633.50
2022-07-29T16:38:59.659Z,99635.56
2022-07-29T16:41:26.438Z,99630.63
2022-07-29T16:43:53.189Z,99637.06
2022-07-29T16:46:21.303Z,99634.34
2022-07-29T16:48:48.468Z,99639.06
2022-07-29T16:51:15.355Z,99637.47
2022-07-29T16:53:42.526Z,99643.75
2022-07-29T16:56:11.165Z,99644.59
2022-07-29T16:58:43.559Z,99656.38
2022-07-29T17:01:11.399Z,99661.59
2022-07-29T17:04:00.134Z,99662.84
2022-07-29T17:06:29.640Z,99664.66
2022-07-29T17:08:57.104Z,99661.84
2022-07-29T17:11:53.799Z,99673.47
2022-07-29T17:14:12.450Z,99671.06
2022-07-29T17:16:39.176Z,99668.22
2022-07-29T17:19:05.886Z,99685.59
2022-07-29T17:21:32.604Z,99685.00
2022-07-29T17:24:03.887Z,99698.59
2022-07-29T17:26:30.991Z,99699.28
2022-07-29T17:28:57.697Z,99707.25
2022-07-29T17:31:24.636Z,99706.44
2022-07-29T17:33:51.323Z,99711.84
2022-07-29T17:36:23.783Z,99717.44
2022-07-29T17:38:51.127Z,99725.06
2022-07-29T17:41:17.811Z,99720.88
2022-07-29T17:43:44.486Z,99720.41
2022-07-29T17:46:11.349Z,99721.56
2022-07-29T17:48:42.650Z,99726.06
2022-07-29T17:51:09.790Z,99739.81
2022-07-29T17:53:37.287Z,99732.38
2022-07-29T17:56:05.058Z,99740.44
2022-07-29T17:58:32.300Z,99739.97
2022-07-29T18:00:59.100Z,99748.38
2022-07-29T18:08:05.562Z,99754.63
2022-07-29T18:10:32.337Z,99747.03
2022-07-29T18:13:05.690Z,99741.16
2022-07-29T18:15:32.432Z,99746.59
2022-07-29T18:17:59.425Z,99747.53
2022-07-29T18:20:26.807Z,99746.81
2022-07-29T18:22:53.989Z,99748.97
2022-07-29T18:25:20.790Z,99758.88
2022-07-29T18:27:50.197Z,99754.41
2022-07-29T18:30:16.867Z,99765.84
2022-07-29T18:32:59.245Z,99776.97
2022-07-29T18:35:31.046Z,99776.50
2022-07-29T18:38:00.251Z,99774.47
2022-07-29T18:40:29.790Z,99783.34
2022-07-29T18:42:56.817Z,99781.22
2022-07-29T18:45:28.567Z,99769.28
2022-07-29T18:47:56.576Z,99763.13
2022-07-29T18:50:28.829Z,99770.81
2022-07-29T18:52:58.405Z,99777.69
2022-07-29T18:55:26.039Z,99780.28
2022-07-29T18:57:55.109Z,99788.31
2022-07-29T19:00:24.139Z,99794.22
2022-07-29T19:02:51.280Z,99791.00
2022-07-29T19:05:18.501Z,99783.81
2022-07-29T19:07:45.421Z,99791.00
2022-07-29T19:10:12.236Z,99788.16
2022-07-29T19:12:39.098Z,99791.56
2022-07-29T19:15:08.038Z,99795.44
2022-07-29T19:17:34.763Z,99792.75
2022-07-29T19:20:01.753Z,99810.63
2022-07-29T19:22:28.419Z,99801.88
2022-07-29T19:24:55.258Z,99806.69
2022-07-29T19:27:22.986Z,99800.44
2022-07-29T19:29:49.635Z,99804.44
2022-07-29T19:32:25.059Z,99802.19
2022-07-29T19:35:11.018Z,99810.94
2022-07-29T19:37:37.748Z,99815.19
2022-07-29T19:40:05.923Z,99812.22
2022-07-29T19:42:32.790Z,99807.50
2022-07-29T19:44:59.461Z,99814.56
2022-07-29T19:47:26.188Z,99814.22
2022-07-29T19:49:52.864Z,99814.28
2022-07-29T19:52:19.552Z,99819.72
2022-07-29T19:54:46.266Z,99817.00
2022-07-29T19:57:12.907Z,99817.84
2022-07-29T19:59:41.077Z,99816.88
2022-07-29T20:02:10.788Z,99820.41
2022-07-29T20:04:38.433Z,99826.44
2022-07-29T20:07:06.557Z,99827.66
2022-07-29T20:09:33.451Z,99830.94
2022-07-29T20:12:00.225Z,99834.13
2022-07-29T20:14:26.951Z,99834.53
2022-07-29T20:16:56.435Z,99835.56
2022-07-29T20:19:23.105Z,99832.63
2022-07-29T20:21:51.391Z,99841.38
2022-07-29T20:24:19.282Z,99852.47
2022-07-29T20:26:46.383Z,99848.91
2022-07-29T20:29:13.107Z,99843.56
2022-07-29T20:31:43.160Z,99844.84
2022-07-29T20:34:10.128Z,99849.66
2022-07-29T20:36:36.945Z,99837.63
2022-07-29T20:39:03.821Z,99829.00
2022-07-29T20:41:30.546Z,99832.81
2022-07-29T20:43:57.229Z,99837.38
2022-07-29T20:46:23.928Z,99830.66
2022-07-29T20:48:50.740Z,99831.28
2022-07-29T20:51:18.402Z,99826.91
2022-07-29T20:53:45.532Z,99827.72
2022-07-29T20:56:12.466Z,99826.09
2022-07-29T20:58:40.299Z,99823.94
2022-07-29T21:01:07.216Z,99827.50
2022-07-29T21:03:33.954Z,99823.72
2022-07-29T21:06:00.688Z,99825.94
2022-07-29T21:08:27.850Z,99830.97
2022-07-29T21:10:54.713Z,99832.72
2022-07-29T21:13:22.914Z,99817.94
2022-07-29T21:15:51.513Z,99820.28
2022-07-29T21:18:30.376Z,99823.47
2022-07-29T21:20:59.887Z,99830.56
2022-07-29T21:23:27.135Z,99834.13
2022-07-29T21:25:54.489Z,99837.38
2022-07-29T21:28:27.075Z,99848.00
2022-07-29T21:30:55.648Z,99851.25
2022-07-29T21:33:22.624Z,99855.00
2022-07-29T21:38:36.745Z,99868.66
2022-07-29T21:41:04.583Z,99885.75
2022-07-29T21:43:31.229Z,99909.94
2022-07-29T21:45:59.349Z,99950.56
2022-07-29T21:48:28.353Z,99939.19
2022-07-29T21:50:55.395Z,99922.47
2022-07-29T21:53:23.028Z,99937.47
2022-07-29T21:55:55.688Z,99927.16
2022-07-29T21:58:23.629Z,99918.34
2022-07-29T22:00:50.351Z,99916.03
2022-07-29T22:03:17.123Z,99910.16
2022-07-29T22:05:44.368Z,99902.19
2022-07-29T22:08:11.110Z,99902.41
2022-07-29T22:10:37.815Z,99883.03
2022-07-29T22:13:07.660Z,99893.22
2022-07-29T22:15:34.417Z,99893.38
2022-07-29T22:18:01.152Z,99888.84
2022-07-29T22:20:28.043Z,99888.84
2022-07-29T22:22:54.733Z,99884.69
2022-07-29T22:25:21.735Z,99882.63
2022-07-29T22:27:48.674Z,99882.88
2022-07-29T22:30:15.789Z,99878.88
2022-07-29T22:32:42.810Z,99879.50
2022-07-29T22:35:09.771Z,99875.06
2022-07-29T22:37:36.489Z,99871.13
2022-07-29T22:40:04.211Z,99880.09
2022-07-29T22:42:31.173Z,99867.59
2022-07-29T22:44:57.856Z,99872.41
2022-07-29T22:47:46.382Z,99870.13
2022-07-29T22:50:11.238Z,99873.75
2022-07-29T22:52:39.014Z,99870.88
2022-07-29T22:55:06.007Z,99859.19
2022-07-29T22:57:32.691Z,99863.94
2022-07-29T23:00:02.058Z,99873.19
2022-07-29T23:02:56.094Z,99876.56
2022-07-29T23:05:22.865Z,99876.81
2022-07-29T23:07:49.504Z,99878.28
2022-07-29T23:10:16.271Z,99872.31
2022-07-29T23:12:42.938Z,99876.06
2022-07-29T23:15:09.612Z,99880.72
2022-07-29T23:17:36.867Z,99881.81
2022-07-29T23:20:06.634Z,99886.81
2022-07-29T23:22:33.865Z,99888.09
2022-07-29T23:25:00.489Z,99886.25
2022-07-29T23:27:27.291Z,99889.63
2022-07-29T23:29:53.918Z,99882.34
2022-07-29T23:32:20.882Z,99884.28
2022-07-29T23:34:47.596Z,99882.84
2022-07-29T23:37:14.298Z,99882.69
2022-07-29T23:39:46.861Z,99891.72
2022-07-29T23:42:13.518Z,99890.38
2022-07-29T23:44:40.186Z,99891.84
2022-07-29T23:47:07.016Z,99888.75
2022-07-29T23:49:33.729Z,99888.75
2022-07-29T23:52:00.462Z,99888.31
2022-07-29T23:54:28.155Z,99893.09
2022-07-29T23:56:57.508Z,99884.63
2022-07-29T23:59:24.662Z,99887.94
